Flight Track Log - Related Links

Times and Time Zones

All times are in EDT time to prevent confusion due to time zone crossing. See the XSR253 flight status page for this flight to view local times or setup timezone preferences in your user account.

Time Position Orientation Groundspeed Altitude Reporting Facility
EDT Latitude Longitude Course Direction KTS MPH feet Rate Location/Type
Thu 04:30:43 PM 42.8000 -73.8578 321° Northwest 203 234 4,000  Level Boston Center
Thu 04:31:49 PM 42.7908 -73.9311 260° West 193 222 7,000 2,719 Climbing Boston Center
Thu 04:32:51 PM 42.7814 -74.0100 261° West 198 228 9,800 1,475 Climbing Boston Center
Thu 04:33:51 PM 42.7719 -74.0919 261° West 219 252 10,000 700 Climbing Boston Center
Thu 04:34:51 PM 42.7686 -74.1739 267° West 247 284 11,200 1,700 Climbing Boston Center
Thu 04:35:51 PM 42.7736 -74.2561 275° West 226 260 13,400 1,800 Climbing Boston Center
Thu 04:36:51 PM 42.7786 -74.3242 276° West 204 235 14,800 1,455 Climbing Boston Center
Thu 04:38:03 PM 42.7833 -74.4175 274° West 198 228 16,600 1,318 Climbing Boston Center
Thu 04:39:03 PM 42.7864 -74.4828 274° West 198 228 17,700 1,200 Climbing Boston Center
Thu 04:40:03 PM 42.7911 -74.5678 274° West 204 235 19,000 1,050 Climbing Boston Center
Thu 04:41:03 PM 42.7939 -74.6358 273° West 204 235 19,800 750 Climbing Boston Center
Thu 04:42:03 PM 42.7986 -74.7125 275° West 204 235 20,500 800 Climbing Boston Center
Thu 04:43:03 PM 42.8033 -74.7861 275° West 199 229 21,400 750 Climbing Boston Center
Thu 04:44:03 PM 42.8061 -74.8628 273° West 199 229 22,000 300 Climbing Boston Center
Thu 04:45:03 PM 42.8125 -74.9533 276° West 214 246 22,000  Level Boston Center
Thu 04:46:03 PM 42.8167 -75.0469 274° West 235 270 22,000  Level Boston Center
Thu 04:47:03 PM 42.8225 -75.1436 275° West 252 290 22,000  Level Boston Center
Thu 04:48:03 PM 42.8267 -75.2400 273° West 257 296 22,000  Level Boston Center
Thu 04:49:03 PM 42.8303 -75.3394 273° West 257 296 22,000  Level Boston Center
Thu 04:50:03 PM 42.8361 -75.4386 275° West 257 296 22,000 -50 Level Boston Center
Thu 04:51:03 PM 42.8397 -75.5408 273° West 267 307 21,900  Descending Boston Center
Thu 04:52:03 PM 42.8431 -75.6431 273° West 272 313 22,000 50 Climbing Boston Center
Thu 04:53:03 PM 42.8483 -75.7453 274° West 277 319 22,000  Level Boston Center
Thu 04:54:03 PM 42.8558 -75.8506 276° West 277 319 22,000 -50 Level Boston Center
Thu 04:55:03 PM 42.8586 -75.9583 272° West 277 319 21,900  Descending Boston Center
Thu 04:57:07 PM 42.8658 -76.1750 273° West 281 323 22,000 33 Climbing Cleveland Center
Thu 04:58:07 PM 42.8700 -76.2794 273° West 281 323 22,000  Level Cleveland Center
Thu 04:59:07 PM 42.8739 -76.3869 273° West 286 329 22,000  Level Cleveland Center
Thu 05:00:07 PM 42.8775 -76.4917 273° West 286 329 22,000 -50 Level Cleveland Center
Thu 05:01:07 PM 42.8833 -76.5961 274° West 286 329 21,900  Descending Cleveland Center
Thu 05:02:07 PM 42.8875 -76.7150 273° West 286 329 22,000 50 Climbing Cleveland Center
Thu 05:03:07 PM 42.8911 -76.8253 273° West 291 335 22,000  Level Cleveland Center
Thu 05:04:07 PM 42.9069 -76.9292 282° West 285 328 22,000 -450 Level Cleveland Center
Thu 05:05:07 PM 42.9269 -77.0414 284° West 296 341 21,100 -850 Descending Cleveland Center
Thu 05:06:07 PM 42.9469 -77.1511 284° West 296 341 20,300 -815 Descending Cleveland Center
Thu 05:06:28 PM 42.9503 -77.1906 277° West 291 335 20,000 -1,100 Descending Cleveland Center
Thu 05:07:07 PM 42.9647 -77.2578 286° West 296 341 19,200 -1,180 Descending Cleveland Center
Thu 05:07:29 PM 42.9700 -77.2944 281° West 286 329 18,800 -1,300 Descending Cleveland Center
Thu 05:08:07 PM 42.9822 -77.3619 284° West 296 341 17,900 -1,286 Descending Cleveland Center
Thu 05:09:07 PM 42.9997 -77.4689 283° West 296 341 16,700 -1,150 Descending Cleveland Center
Thu 05:10:07 PM 43.0172 -77.5761 283° West 296 341 15,600 -1,400 Descending Cleveland Center
Thu 05:11:07 PM 43.0344 -77.6831 282° West 296 341 13,900 -1,686 Descending Cleveland Center
Thu 05:12:08 PM 43.0539 -77.7958 283° West 296 341 12,200 -1,750 Descending Cleveland Center
Thu 05:13:07 PM 43.0689 -77.9033 281° West 296 341 10,400 -1,916 Descending Cleveland Center
Thu 05:14:07 PM 43.0861 -78.0106 282° West 296 341 8,400 -1,200 Descending Cleveland Center
Thu 05:15:07 PM 43.0739 -78.1192 261° West 291 335 8,000 -200 Descending Cleveland Center
Thu 05:16:07 PM 43.0592 -78.2219 259° West 286 329 8,000 -426 Level Cleveland Center
Thu 05:18:24 PM 42.9667 -78.4500 241° Southwest 303 349 6,600 -792 Descending Buffalo TRACON
Thu 05:19:24 PM 42.9333 -78.5500 246° West 300 345 5,400 -1,200 Descending Buffalo TRACON
Thu 05:20:24 PM 42.8833 -78.6167 224° Southwest 287 330 4,200 -700 Descending Buffalo TRACON
Thu 05:21:24 PM 42.8333 -78.7000 231° Southwest 243 280 4,000 -200 Descending Buffalo TRACON
Thu 05:22:24 PM 42.7833 -78.7667 224° Southwest 248 285 3,800 -500 Descending Buffalo TRACON
Thu 05:23:24 PM 42.7833 -78.8667 270° West 242 278 3,000 -650 Descending Buffalo TRACON
Thu 05:24:24 PM 42.8333 -78.8833 346° North 164 189 2,500 -250 Descending Buffalo TRACON
Thu 05:25:24 PM 42.8500 -78.8333 66° East 140 161 2,500 -150 Level Buffalo TRACON
Thu 05:26:24 PM 42.8833 -78.8000 36° Northeast 110 127 2,200 -450 Descending Buffalo TRACON
Thu 05:27:24 PM 42.9000 -78.7833 36° Northeast 92 106 1,600 -550 Descending Buffalo TRACON
Thu 05:28:24 PM 42.9167 -78.7500 56° Northeast 99 114 1,100 -500 Descending Buffalo TRACON

Login

Don't have an account? Register now (free) for customized features, flight alerts, and more!